createdAt,value
2018-03-17T00:01:41.550Z,8.88
2018-03-17T00:04:09.137Z,8.52
2018-03-17T00:06:36.673Z,8.20
2018-03-17T00:09:05.078Z,8.98
2018-03-17T00:11:32.635Z,7.70
2018-03-17T00:14:00.159Z,7.95
2018-03-17T00:16:27.710Z,8.45
2018-03-17T00:18:55.340Z,8.05
2018-03-17T00:21:23.058Z,8.13
2018-03-17T00:23:51.318Z,7.15
2018-03-17T00:26:19.512Z,8.02
2018-03-17T00:28:47.609Z,8.18
2018-03-17T00:31:18.182Z,7.78
2018-03-17T00:33:45.702Z,7.68
2018-03-17T00:36:13.260Z,8.32
2018-03-17T00:38:43.150Z,7.05
2018-03-17T00:41:11.114Z,7.72
2018-03-17T00:46:11.490Z,7.43
2018-03-17T00:48:39.028Z,7.78
2018-03-17T00:51:06.593Z,8.38
2018-03-17T00:53:34.138Z,7.85
2018-03-17T00:56:01.669Z,7.50
2018-03-17T00:58:29.195Z,7.82
2018-03-17T01:00:56.748Z,7.95
2018-03-17T01:03:24.288Z,7.30
2018-03-17T01:05:51.842Z,7.45
2018-03-17T01:08:19.389Z,7.18
2018-03-17T01:10:46.906Z,6.70
2018-03-17T01:13:14.466Z,7.62
2018-03-17T01:15:41.977Z,7.53
2018-03-17T01:18:09.524Z,6.90
2018-03-17T01:20:37.110Z,6.40
2018-03-17T01:23:04.643Z,7.22
2018-03-17T01:25:32.166Z,7.45
2018-03-17T01:27:59.717Z,7.57
2018-03-17T01:30:27.238Z,7.30
2018-03-17T01:32:54.753Z,6.95
2018-03-17T01:35:23.057Z,7.18
2018-03-17T01:37:50.577Z,6.68
2018-03-17T01:40:18.103Z,7.00
2018-03-17T01:42:45.617Z,7.90
2018-03-17T01:45:13.933Z,7.70
2018-03-17T01:47:41.464Z,6.57
2018-03-17T01:50:09.758Z,6.97
2018-03-17T01:52:37.289Z,7.43
2018-03-17T01:55:05.629Z,7.75
2018-03-17T01:57:33.141Z,8.00
2018-03-17T02:00:00.658Z,7.35
2018-03-17T02:02:28.221Z,8.40
2018-03-17T02:04:55.734Z,8.52
2018-03-17T02:07:23.279Z,9.13
2018-03-17T02:09:50.855Z,8.68
2018-03-17T02:12:18.414Z,9.20
2018-03-17T02:14:46.753Z,9.68
2018-03-17T02:17:15.049Z,9.05
2018-03-17T02:19:42.561Z,8.20
2018-03-17T02:22:10.153Z,8.98
2018-03-17T02:24:38.426Z,8.48
2018-03-17T02:27:06.751Z,7.80
2018-03-17T02:29:34.305Z,9.20
2018-03-17T02:32:01.851Z,7.68
2018-03-17T02:34:29.422Z,7.85
2018-03-17T02:36:56.976Z,7.25
2018-03-17T02:39:24.536Z,7.80
2018-03-17T02:41:52.075Z,7.57
2018-03-17T02:44:19.653Z,7.28
2018-03-17T02:46:47.180Z,6.07
2018-03-17T02:49:15.594Z,6.72
2018-03-17T02:51:43.144Z,5.95
2018-03-17T02:54:10.685Z,7.40
2018-03-17T02:56:38.252Z,6.43
2018-03-17T02:59:05.814Z,6.47
2018-03-17T03:01:33.341Z,6.20
2018-03-17T03:04:00.875Z,5.85
2018-03-17T03:06:28.406Z,6.78
2018-03-17T03:08:56.072Z,6.00
2018-03-17T03:11:23.633Z,6.30
2018-03-17T03:13:51.188Z,6.95
2018-03-17T03:16:18.719Z,6.50
2018-03-17T03:18:46.249Z,6.72
2018-03-17T03:21:13.777Z,6.05
2018-03-17T03:23:41.317Z,6.60
2018-03-17T03:26:08.844Z,6.43
2018-03-17T03:28:37.137Z,5.40
2018-03-17T03:31:04.650Z,5.97
2018-03-17T03:33:32.983Z,5.90
2018-03-17T03:36:00.519Z,6.00
2018-03-17T03:38:28.824Z,5.65
2018-03-17T03:40:56.334Z,6.40
2018-03-17T03:43:23.893Z,5.85
2018-03-17T03:45:51.450Z,6.45
2018-03-17T03:48:18.973Z,5.75
2018-03-17T03:50:46.627Z,6.43
2018-03-17T03:53:14.161Z,7.20
2018-03-17T03:55:41.711Z,7.00
2018-03-17T03:58:10.119Z,6.55
2018-03-17T04:00:37.667Z,6.50
2018-03-17T04:03:05.214Z,5.93
2018-03-17T04:05:32.773Z,6.75
2018-03-17T04:08:00.316Z,6.50
2018-03-17T04:10:28.628Z,7.12
2018-03-17T04:12:56.145Z,7.87
2018-03-17T04:15:24.490Z,6.70
2018-03-17T04:17:52.034Z,6.45
2018-03-17T04:20:19.574Z,5.78
2018-03-17T04:22:47.101Z,6.50
2018-03-17T04:25:15.405Z,6.15
2018-03-17T04:27:42.979Z,6.10
2018-03-17T04:30:10.492Z,6.18
2018-03-17T04:32:38.036Z,7.40
2018-03-17T04:35:05.550Z,6.93
2018-03-17T04:37:33.077Z,6.50
2018-03-17T04:40:01.377Z,7.18
2018-03-17T04:42:28.924Z,5.65
2018-03-17T04:44:56.452Z,5.50
2018-03-17T04:47:24.031Z,6.05
2018-03-17T04:49:52.333Z,6.97
2018-03-17T04:52:19.859Z,5.78
2018-03-17T04:54:48.197Z,6.05
2018-03-17T04:57:15.737Z,6.45
2018-03-17T04:59:43.283Z,6.53
2018-03-17T05:02:10.849Z,6.45
2018-03-17T05:04:38.401Z,5.95
2018-03-17T05:07:05.921Z,6.25
2018-03-17T05:09:33.460Z,5.05
2018-03-17T05:12:00.969Z,6.35
2018-03-17T05:14:28.555Z,7.03
2018-03-17T05:16:56.092Z,6.60
2018-03-17T05:19:23.653Z,6.45
2018-03-17T05:21:51.181Z,6.37
2018-03-17T05:24:18.787Z,6.45
2018-03-17T05:26:46.312Z,7.05
2018-03-17T05:29:14.640Z,6.20
2018-03-17T05:31:42.167Z,7.30
2018-03-17T05:34:09.729Z,5.80
2018-03-17T05:36:37.259Z,7.32
2018-03-17T05:39:05.604Z,6.40
2018-03-17T05:41:33.121Z,5.95
2018-03-17T05:44:00.674Z,7.20
2018-03-17T05:46:28.237Z,6.68
2018-03-17T05:48:55.790Z,7.75
2018-03-17T05:51:23.377Z,6.28
2018-03-17T05:53:50.921Z,6.90
2018-03-17T05:56:18.465Z,7.30
2018-03-17T05:58:46.055Z,6.57
2018-03-17T06:01:13.617Z,6.12
2018-03-17T06:03:41.153Z,8.30
2018-03-17T06:06:08.730Z,6.28
2018-03-17T06:08:36.267Z,6.80
2018-03-17T06:11:03.808Z,6.87
2018-03-17T06:13:32.124Z,6.37
2018-03-17T06:15:59.692Z,6.50
2018-03-17T06:18:27.245Z,7.45
2018-03-17T06:20:54.805Z,7.03
2018-03-17T06:23:22.336Z,7.50
2018-03-17T06:25:50.614Z,5.60
2018-03-17T06:28:18.199Z,6.25
2018-03-17T06:30:45.782Z,6.10
2018-03-17T06:33:13.294Z,6.03
2018-03-17T06:35:40.811Z,6.20
2018-03-17T06:38:08.437Z,6.12
2018-03-17T06:40:36.010Z,6.40
2018-03-17T06:43:03.634Z,6.43
2018-03-17T06:45:31.157Z,6.05
2018-03-17T06:47:58.711Z,6.12
2018-03-17T06:50:26.252Z,6.05
2018-03-17T06:52:54.558Z,6.45
2018-03-17T06:55:22.171Z,6.37
2018-03-17T06:57:49.728Z,6.05
2018-03-17T07:00:17.264Z,5.90
2018-03-17T07:02:44.807Z,5.90
2018-03-17T07:05:13.124Z,6.45
2018-03-17T07:07:40.681Z,7.10
2018-03-17T07:10:08.231Z,6.35
2018-03-17T07:12:35.781Z,6.07
2018-03-17T07:15:03.294Z,6.05
2018-03-17T07:17:30.852Z,6.40
2018-03-17T07:19:58.384Z,6.18
2018-03-17T07:22:25.964Z,6.03
2018-03-17T07:24:53.495Z,6.12
2018-03-17T07:27:21.066Z,7.40
2018-03-17T07:29:48.596Z,6.12
2018-03-17T07:32:16.128Z,6.78
2018-03-17T07:34:44.444Z,6.40
2018-03-17T07:37:12.008Z,7.00
2018-03-17T07:39:39.608Z,7.70
2018-03-17T07:42:07.148Z,7.55
2018-03-17T07:44:34.791Z,7.00
2018-03-17T07:47:02.344Z,6.55
2018-03-17T07:49:29.900Z,7.10
2018-03-17T07:51:57.466Z,6.28
2018-03-17T07:54:25.031Z,7.32
2018-03-17T07:56:52.580Z,6.00
2018-03-17T07:59:20.126Z,6.93
2018-03-17T08:01:47.697Z,6.97
2018-03-17T08:04:15.283Z,6.45
2018-03-17T08:06:42.836Z,6.25
2018-03-17T08:09:10.378Z,7.28
2018-03-17T08:11:38.049Z,6.70
2018-03-17T08:14:05.616Z,7.53
2018-03-17T08:16:33.174Z,6.90
2018-03-17T08:19:00.720Z,6.12
2018-03-17T08:21:28.256Z,5.65
2018-03-17T08:23:55.801Z,6.87
2018-03-17T08:26:24.278Z,7.55
2018-03-17T08:28:52.585Z,5.78
2018-03-17T08:31:20.156Z,6.30
2018-03-17T08:33:47.711Z,5.78
2018-03-17T08:36:15.249Z,6.45
2018-03-17T08:38:42.762Z,5.85
2018-03-17T08:41:10.320Z,6.62
2018-03-17T08:43:37.833Z,6.50
2018-03-17T08:46:05.391Z,6.18
2018-03-17T08:48:32.914Z,6.25
2018-03-17T08:51:00.457Z,7.05
2018-03-17T08:53:27.985Z,6.00
2018-03-17T08:55:55.519Z,6.15
2018-03-17T08:58:23.075Z,7.03
2018-03-17T09:00:50.604Z,7.07
2018-03-17T09:03:18.147Z,5.90
2018-03-17T09:05:45.710Z,7.50
2018-03-17T09:08:13.256Z,6.95
2018-03-17T09:10:40.782Z,5.35
2018-03-17T09:13:08.329Z,7.78
2018-03-17T09:15:35.841Z,7.25
2018-03-17T09:18:03.417Z,6.37
2018-03-17T09:20:31.036Z,6.05
2018-03-17T09:22:58.576Z,7.03
2018-03-17T09:25:26.163Z,6.78
2018-03-17T09:27:53.691Z,6.68
2018-03-17T09:30:21.256Z,6.50
2018-03-17T09:32:48.852Z,7.62
2018-03-17T09:35:16.375Z,6.93
2018-03-17T09:37:43.952Z,6.90
2018-03-17T09:40:11.489Z,7.22
2018-03-17T09:42:39.067Z,6.82
2018-03-17T09:45:06.639Z,6.93
2018-03-17T09:47:34.206Z,7.68
2018-03-17T09:50:01.852Z,6.80
2018-03-17T09:52:29.434Z,6.12
2018-03-17T09:54:56.954Z,6.87
2018-03-17T09:57:24.492Z,6.90
2018-03-17T09:59:52.801Z,6.78
2018-03-17T10:02:20.354Z,6.47
2018-03-17T10:04:47.952Z,7.45
2018-03-17T10:07:16.251Z,6.85
2018-03-17T10:09:44.609Z,7.35
2018-03-17T10:12:12.162Z,6.93
2018-03-17T10:14:39.736Z,6.87
2018-03-17T10:17:07.280Z,7.45
2018-03-17T10:19:34.833Z,6.53
2018-03-17T10:22:02.397Z,7.37
2018-03-17T10:24:29.942Z,8.02
2018-03-17T10:26:57.512Z,6.87
2018-03-17T10:29:25.108Z,6.75
2018-03-17T10:31:52.635Z,7.55
2018-03-17T10:34:20.168Z,8.15
2018-03-17T10:36:47.728Z,7.50
2018-03-17T10:39:15.250Z,7.53
2018-03-17T10:41:43.551Z,7.00
2018-03-17T10:44:11.115Z,7.75
2018-03-17T10:46:38.669Z,7.65
2018-03-17T10:49:06.228Z,7.30
2018-03-17T10:51:33.757Z,7.55
2018-03-17T10:54:02.084Z,8.68
2018-03-17T10:56:29.624Z,8.07
2018-03-17T10:58:57.184Z,8.07
2018-03-17T11:01:25.672Z,7.78
2018-03-17T11:03:53.203Z,7.95
2018-03-17T11:06:21.521Z,7.35
2018-03-17T11:08:49.068Z,7.75
2018-03-17T11:11:16.630Z,7.82
2018-03-17T11:13:44.146Z,7.95
2018-03-17T11:16:12.460Z,7.75
2018-03-17T11:18:40.014Z,9.00
2018-03-17T11:21:07.565Z,7.80
2018-03-17T11:23:35.137Z,7.60
2018-03-17T11:26:02.684Z,7.12
2018-03-17T11:28:30.281Z,7.55
2018-03-17T11:30:57.807Z,8.13
2018-03-17T11:33:25.352Z,7.00
2018-03-17T11:35:52.909Z,7.75
2018-03-17T11:38:20.468Z,7.82
2018-03-17T11:40:48.037Z,6.82
2018-03-17T11:43:15.719Z,7.68
2018-03-17T11:45:43.237Z,7.75
2018-03-17T11:48:11.531Z,7.15
2018-03-17T11:50:39.111Z,8.02
2018-03-17T11:53:06.646Z,7.95
2018-03-17T11:55:34.231Z,7.72
2018-03-17T11:58:01.786Z,7.97
2018-03-17T12:00:29.359Z,8.00
2018-03-17T12:02:56.896Z,7.95
2018-03-17T12:05:24.479Z,7.60
2018-03-17T12:07:52.016Z,7.65
2018-03-17T12:10:19.559Z,7.05
2018-03-17T12:12:47.145Z,6.32
2018-03-17T12:15:14.715Z,7.93
2018-03-17T12:17:42.264Z,8.20
2018-03-17T12:20:09.781Z,8.88
2018-03-17T12:22:38.202Z,7.30
2018-03-17T12:25:05.761Z,7.07
2018-03-17T12:27:33.324Z,9.00
2018-03-17T12:30:01.507Z,8.65
2018-03-17T12:32:29.476Z,8.85
2018-03-17T12:34:57.014Z,8.32
2018-03-17T12:37:24.609Z,7.55
2018-03-17T12:39:52.161Z,9.90
2018-03-17T12:42:19.713Z,7.20
2018-03-17T12:44:47.281Z,7.00
2018-03-17T12:47:14.810Z,6.68
2018-03-17T12:49:42.360Z,6.32
2018-03-17T12:52:09.899Z,6.93
2018-03-17T12:54:38.204Z,7.07
2018-03-17T12:57:05.774Z,7.80
2018-03-17T12:59:33.334Z,8.98
2018-03-17T13:02:00.901Z,7.12
2018-03-17T13:04:28.441Z,7.53
2018-03-17T13:06:56.009Z,6.97
2018-03-17T13:09:23.551Z,7.60
2018-03-17T13:11:51.233Z,7.47
2018-03-17T13:14:18.754Z,8.57
2018-03-17T13:16:47.078Z,8.48
2018-03-17T15:22:50.401Z,8.50
2018-03-17T15:25:18.042Z,7.93
2018-03-17T15:27:45.605Z,7.60
2018-03-17T15:30:13.916Z,8.35
2018-03-17T15:32:41.458Z,6.55
2018-03-17T15:35:09.737Z,6.80
2018-03-17T15:37:38.043Z,7.62
2018-03-17T15:40:05.591Z,7.18
2018-03-17T15:42:33.155Z,7.90
2018-03-17T15:45:00.687Z,7.07
2018-03-17T15:47:28.985Z,8.05
2018-03-17T15:49:56.511Z,7.40
2018-03-17T15:52:24.857Z,6.47
2018-03-17T15:54:52.408Z,7.65
2018-03-17T15:57:19.952Z,6.87
2018-03-17T15:59:47.468Z,7.40
2018-03-17T16:02:15.785Z,8.07
2018-03-17T16:04:43.312Z,6.55
2018-03-17T16:07:10.861Z,7.47
2018-03-17T16:09:39.173Z,8.55
2018-03-17T16:12:06.736Z,9.77
2018-03-17T16:14:34.279Z,7.32
2018-03-17T16:17:01.844Z,8.30
2018-03-17T16:19:29.393Z,7.32
2018-03-17T16:21:56.931Z,7.20
2018-03-17T16:24:25.250Z,7.35
2018-03-17T16:26:52.920Z,7.55
2018-03-17T16:29:20.478Z,8.07
2018-03-17T16:31:48.024Z,7.32
2018-03-17T16:34:15.557Z,7.07
2018-03-17T16:36:43.869Z,7.40
2018-03-17T16:39:11.459Z,9.60
2018-03-17T16:41:38.969Z,7.43
2018-03-17T16:44:06.530Z,8.50
2018-03-17T16:46:34.045Z,9.90
2018-03-17T16:49:01.624Z,8.15
2018-03-17T16:51:29.913Z,8.65
2018-03-17T16:53:57.507Z,8.68
2018-03-17T16:56:25.041Z,7.70
2018-03-17T16:58:52.573Z,8.60
2018-03-17T17:01:20.849Z,7.68
2018-03-17T17:03:49.165Z,7.30
2018-03-17T17:06:16.696Z,7.82
2018-03-17T17:08:45.104Z,8.10
2018-03-17T17:11:12.643Z,7.37
2018-03-17T17:13:40.191Z,7.03
2018-03-17T17:16:08.581Z,7.97
2018-03-17T17:18:36.143Z,8.48
2018-03-17T17:21:03.683Z,8.10
2018-03-17T17:23:31.992Z,7.93
2018-03-17T17:25:59.527Z,8.60
2018-03-17T17:28:27.071Z,8.00
2018-03-17T17:30:55.375Z,7.18
2018-03-17T17:33:22.948Z,7.55
2018-03-17T17:35:50.491Z,7.75
2018-03-17T17:38:18.031Z,7.87
2018-03-17T17:40:46.335Z,8.43
2018-03-17T17:43:13.892Z,9.05
2018-03-17T17:45:41.433Z,8.30
2018-03-17T17:48:09.049Z,8.23
2018-03-17T17:50:36.582Z,6.65
2018-03-17T17:53:04.138Z,8.55
2018-03-17T17:55:31.694Z,9.20
2018-03-17T17:57:59.253Z,8.40
2018-03-17T18:00:26.799Z,8.57
2018-03-17T18:02:54.346Z,8.65
2018-03-17T18:05:22.642Z,7.53
2018-03-17T18:07:50.242Z,7.60
2018-03-17T18:10:17.772Z,7.65
2018-03-17T18:12:45.344Z,7.70
2018-03-17T18:15:12.899Z,7.68
2018-03-17T18:17:40.554Z,8.07
2018-03-17T18:20:08.083Z,8.45
2018-03-17T18:22:36.395Z,7.60
2018-03-17T18:25:03.917Z,7.55
2018-03-17T18:27:32.223Z,8.23
2018-03-17T18:29:59.761Z,8.30
2018-03-17T18:32:27.334Z,8.18
2018-03-17T18:34:54.853Z,7.75
2018-03-17T18:37:22.406Z,7.70
2018-03-17T18:39:50.018Z,8.25
2018-03-17T18:42:17.599Z,7.57
2018-03-17T18:44:45.151Z,8.30
2018-03-17T18:47:12.713Z,7.47
2018-03-17T18:49:40.222Z,7.62
2018-03-17T18:52:08.557Z,7.00
2018-03-17T18:54:36.154Z,7.85
2018-03-17T18:57:04.479Z,7.20
2018-03-17T18:59:32.033Z,8.35
2018-03-17T19:01:59.602Z,7.10
2018-03-17T19:04:27.146Z,7.53
2018-03-17T19:06:54.664Z,7.87
2018-03-17T19:09:22.988Z,6.72
2018-03-17T19:11:50.520Z,7.25
2018-03-17T19:14:18.077Z,8.80
2018-03-17T19:16:45.597Z,7.65
2018-03-17T19:19:13.169Z,9.25
2018-03-17T19:21:40.695Z,9.77
2018-03-17T19:24:09.279Z,9.07
2018-03-17T19:26:36.817Z,9.65
2018-03-17T19:29:04.368Z,7.65
2018-03-17T19:31:31.938Z,7.72
2018-03-17T19:33:59.491Z,7.78
2018-03-17T19:36:27.009Z,7.87
2018-03-17T19:38:55.341Z,8.90
2018-03-17T19:41:22.869Z,7.53
2018-03-17T19:43:50.425Z,8.50
2018-03-17T19:46:17.982Z,7.90
2018-03-17T19:48:45.549Z,7.30
2018-03-17T19:51:13.097Z,7.70
2018-03-17T19:53:41.410Z,8.73
2018-03-17T19:56:09.079Z,7.43
2018-03-17T19:58:36.639Z,8.00
2018-03-17T20:01:04.958Z,7.07
2018-03-17T20:03:33.287Z,7.93
2018-03-17T20:06:00.802Z,7.90
2018-03-17T20:08:29.135Z,7.78
2018-03-17T20:10:56.663Z,9.55
2018-03-17T20:13:24.215Z,7.20
2018-03-17T20:15:51.744Z,8.13
2018-03-17T20:18:19.295Z,8.70
2018-03-17T20:20:46.817Z,7.10
2018-03-17T20:23:15.190Z,7.90
2018-03-17T20:25:42.734Z,8.02
2018-03-17T20:28:10.273Z,8.32
2018-03-17T20:30:38.583Z,9.02
2018-03-17T20:33:06.136Z,9.38
2018-03-17T20:35:33.665Z,8.90
2018-03-17T20:38:01.960Z,8.30
2018-03-17T20:40:29.538Z,7.60
2018-03-17T20:42:57.088Z,7.35
2018-03-17T20:45:24.632Z,8.15
2018-03-17T20:47:52.207Z,8.20
2018-03-17T20:50:19.749Z,7.80
2018-03-17T20:52:47.309Z,7.87
2018-03-17T20:55:14.826Z,8.43
2018-03-17T20:57:42.372Z,9.38
2018-03-17T21:00:09.892Z,8.00
2018-03-17T21:02:37.441Z,7.93
2018-03-17T21:05:05.745Z,8.35
2018-03-17T21:07:33.300Z,8.88
2018-03-17T21:10:00.842Z,11.52
2018-03-17T21:12:28.405Z,8.52
2018-03-17T21:14:55.935Z,8.95
2018-03-17T21:17:23.494Z,9.82
2018-03-17T21:19:51.779Z,9.23
2018-03-17T21:22:20.103Z,8.57
2018-03-17T21:24:47.621Z,8.70
2018-03-17T21:27:15.948Z,8.77
2018-03-17T21:29:43.487Z,8.82
2018-03-17T21:32:11.058Z,9.70
2018-03-17T21:34:38.591Z,8.95
2018-03-17T21:37:06.148Z,8.88
2018-03-17T21:39:33.698Z,9.05
2018-03-17T21:42:01.255Z,8.68
2018-03-17T21:44:28.803Z,10.55
2018-03-17T21:46:57.113Z,10.05
2018-03-17T21:49:24.656Z,9.10
2018-03-17T21:51:52.173Z,10.10
2018-03-17T21:54:19.736Z,10.73
2018-03-17T21:56:48.051Z,10.60
2018-03-17T21:59:15.585Z,9.82
2018-03-17T22:01:43.893Z,8.43
2018-03-17T22:04:11.457Z,9.70
2018-03-17T22:06:38.999Z,10.18
2018-03-17T22:09:06.547Z,9.32
2018-03-17T22:11:34.860Z,10.07
2018-03-17T22:14:02.408Z,8.95
2018-03-17T22:16:29.925Z,9.98
2018-03-17T22:18:57.472Z,9.43
2018-03-17T22:21:25.099Z,10.32
2018-03-17T22:23:52.659Z,8.98
2018-03-17T22:26:20.184Z,10.05
2018-03-17T22:28:48.503Z,9.68
2018-03-17T22:31:16.035Z,10.93
2018-03-17T22:33:43.593Z,10.00
2018-03-17T22:36:11.140Z,8.68
2018-03-17T22:38:38.737Z,8.68
2018-03-17T22:41:06.265Z,8.93
2018-03-17T22:43:33.826Z,10.60
2018-03-17T22:46:01.354Z,9.77
2018-03-17T22:48:28.904Z,8.57
2018-03-17T22:50:56.440Z,9.43
2018-03-17T22:53:23.980Z,7.78
2018-03-17T22:55:51.516Z,9.27
2018-03-17T22:58:19.101Z,9.98
2018-03-17T23:00:46.627Z,9.10
2018-03-17T23:03:14.929Z,9.50
2018-03-17T23:05:42.451Z,9.52
2018-03-17T23:08:10.755Z,9.82
2018-03-17T23:10:38.305Z,9.20
2018-03-17T23:13:05.856Z,9.23
2018-03-17T23:15:34.163Z,9.32
2018-03-17T23:18:01.714Z,8.27
2018-03-17T23:20:29.248Z,9.95
2018-03-17T23:22:57.559Z,9.13
2018-03-17T23:25:25.121Z,10.00
2018-03-17T23:27:52.671Z,9.18
2018-03-17T23:30:20.227Z,11.20
2018-03-17T23:32:47.793Z,8.73
2018-03-17T23:35:15.331Z,10.70
2018-03-17T23:37:42.868Z,8.63
2018-03-17T23:40:10.410Z,8.98
2018-03-17T23:42:37.951Z,9.70
2018-03-17T23:45:05.492Z,9.52
2018-03-17T23:47:33.032Z,9.15
2018-03-17T23:50:00.608Z,7.85
2018-03-17T23:52:28.156Z,9.85
2018-03-17T23:54:55.693Z,8.30
2018-03-17T23:57:24.109Z,10.07
2018-03-17T23:59:51.634Z,9.05
